sensor_id;sensor_type;location;lat;lon;timestamp;P1;durP1;ratioP1;P2;durP2;ratioP2
10902;SDS011;5504;47.312;11.060;2022-08-18T00:04:33;8.73;;;7.93;;
10902;SDS011;5504;47.312;11.060;2022-08-18T00:07:05;8.65;;;7.85;;
10902;SDS011;5504;47.312;11.060;2022-08-18T00:09:34;8.50;;;7.65;;
10902;SDS011;5504;47.312;11.060;2022-08-18T00:12:03;9.18;;;8.35;;
10902;SDS011;5504;47.312;11.060;2022-08-18T00:14:32;9.18;;;8.18;;
10902;SDS011;5504;47.312;11.060;2022-08-18T00:16:57;8.50;;;7.80;;
10902;SDS011;5504;47.312;11.060;2022-08-18T00:19:24;8.52;;;7.82;;
10902;SDS011;5504;47.312;11.060;2022-08-18T00:21:50;9.20;;;8.38;;
10902;SDS011;5504;47.312;11.060;2022-08-18T00:24:16;9.10;;;8.13;;
10902;SDS011;5504;47.312;11.060;2022-08-18T00:26:42;9.57;;;8.68;;
10902;SDS011;5504;47.312;11.060;2022-08-18T00:29:07;9.18;;;8.35;;
10902;SDS011;5504;47.312;11.060;2022-08-18T00:31:33;9.30;;;8.40;;
10902;SDS011;5504;47.312;11.060;2022-08-18T00:33:59;9.93;;;8.60;;
10902;SDS011;5504;47.312;11.060;2022-08-18T00:36:25;8.82;;;7.97;;
10902;SDS011;5504;47.312;11.060;2022-08-18T00:38:52;9.30;;;8.50;;
10902;SDS011;5504;47.312;11.060;2022-08-18T00:41:18;8.98;;;8.18;;
10902;SDS011;5504;47.312;11.060;2022-08-18T00:43:47;9.40;;;8.38;;
10902;SDS011;5504;47.312;11.060;2022-08-18T00:46:16;9.23;;;8.38;;
10902;SDS011;5504;47.312;11.060;2022-08-18T00:48:44;8.70;;;7.82;;
10902;SDS011;5504;47.312;11.060;2022-08-18T00:51:17;8.38;;;7.60;;
10902;SDS011;5504;47.312;11.060;2022-08-18T00:56:25;9.10;;;8.20;;
10902;SDS011;5504;47.312;11.060;2022-08-18T00:59:20;8.85;;;8.05;;
10902;SDS011;5504;47.312;11.060;2022-08-18T01:01:50;8.75;;;7.85;;
10902;SDS011;5504;47.312;11.060;2022-08-18T01:04:21;9.27;;;8.48;;
10902;SDS011;5504;47.312;11.060;2022-08-18T01:06:54;9.32;;;8.43;;
10902;SDS011;5504;47.312;11.060;2022-08-18T01:09:24;9.05;;;8.25;;
10902;SDS011;5504;47.312;11.060;2022-08-18T01:11:50;9.85;;;8.90;;
10902;SDS011;5504;47.312;11.060;2022-08-18T01:14:16;9.15;;;8.25;;
10902;SDS011;5504;47.312;11.060;2022-08-18T01:16:47;9.82;;;8.93;;
10902;SDS011;5504;47.312;11.060;2022-08-18T01:19:34;9.52;;;8.63;;
10902;SDS011;5504;47.312;11.060;2022-08-18T01:25:03;9.27;;;8.38;;
10902;SDS011;5504;47.312;11.060;2022-08-18T01:27:49;9.80;;;9.00;;
10902;SDS011;5504;47.312;11.060;2022-08-18T01:30:16;9.20;;;8.27;;
10902;SDS011;5504;47.312;11.060;2022-08-18T01:32:43;9.60;;;8.70;;
10902;SDS011;5504;47.312;11.060;2022-08-18T01:35:10;9.67;;;8.77;;
10902;SDS011;5504;47.312;11.060;2022-08-18T01:37:38;9.50;;;8.60;;
10902;SDS011;5504;47.312;11.060;2022-08-18T01:40:06;9.77;;;8.80;;
10902;SDS011;5504;47.312;11.060;2022-08-18T01:42:33;9.10;;;8.30;;
10902;SDS011;5504;47.312;11.060;2022-08-18T01:44:59;9.05;;;8.25;;
10902;SDS011;5504;47.312;11.060;2022-08-18T01:47:27;11.35;;;9.40;;
10902;SDS011;5504;47.312;11.060;2022-08-18T01:49:53;9.88;;;8.98;;
10902;SDS011;5504;47.312;11.060;2022-08-18T01:52:22;9.30;;;8.32;;
10902;SDS011;5504;47.312;11.060;2022-08-18T01:54:48;10.07;;;8.95;;
10902;SDS011;5504;47.312;11.060;2022-08-18T01:57:15;9.63;;;8.32;;
10902;SDS011;5504;47.312;11.060;2022-08-18T01:59:43;10.47;;;9.47;;
10902;SDS011;5504;47.312;11.060;2022-08-18T02:02:11;10.23;;;9.23;;
10902;SDS011;5504;47.312;11.060;2022-08-18T02:04:39;10.17;;;9.27;;
10902;SDS011;5504;47.312;11.060;2022-08-18T02:07:07;9.70;;;8.83;;
10902;SDS011;5504;47.312;11.060;2022-08-18T02:09:35;9.70;;;8.80;;
10902;SDS011;5504;47.312;11.060;2022-08-18T02:12:02;9.70;;;8.80;;
10902;SDS011;5504;47.312;11.060;2022-08-18T02:14:29;9.60;;;8.70;;
10902;SDS011;5504;47.312;11.060;2022-08-18T02:16:59;10.17;;;9.17;;
10902;SDS011;5504;47.312;11.060;2022-08-18T02:19:26;9.60;;;8.63;;
10902;SDS011;5504;47.312;11.060;2022-08-18T02:21:52;9.50;;;8.70;;
10902;SDS011;5504;47.312;11.060;2022-08-18T02:24:18;9.77;;;8.80;;
10902;SDS011;5504;47.312;11.060;2022-08-18T02:26:44;9.77;;;8.77;;
10902;SDS011;5504;47.312;11.060;2022-08-18T02:29:09;9.87;;;8.97;;
10902;SDS011;5504;47.312;11.060;2022-08-18T02:31:35;9.80;;;8.90;;
10902;SDS011;5504;47.312;11.060;2022-08-18T02:34:01;9.33;;;8.53;;
10902;SDS011;5504;47.312;11.060;2022-08-18T02:36:27;9.83;;;8.93;;
10902;SDS011;5504;47.312;11.060;2022-08-18T02:38:52;10.10;;;9.23;;
10902;SDS011;5504;47.312;11.060;2022-08-18T02:41:19;9.93;;;9.00;;
10902;SDS011;5504;47.312;11.060;2022-08-18T02:43:45;9.80;;;8.90;;
10902;SDS011;5504;47.312;11.060;2022-08-18T02:46:12;11.77;;;9.77;;
10902;SDS011;5504;47.312;11.060;2022-08-18T02:48:38;10.17;;;9.20;;
10902;SDS011;5504;47.312;11.060;2022-08-18T02:51:08;9.67;;;8.87;;
10902;SDS011;5504;47.312;11.060;2022-08-18T02:53:39;9.77;;;8.97;;
10902;SDS011;5504;47.312;11.060;2022-08-18T02:59:13;9.47;;;8.67;;
10902;SDS011;5504;47.312;11.060;2022-08-18T03:01:40;9.73;;;8.83;;
10902;SDS011;5504;47.312;11.060;2022-08-18T03:04:09;9.40;;;8.60;;
10902;SDS011;5504;47.312;11.060;2022-08-18T03:06:37;9.83;;;8.80;;
10902;SDS011;5504;47.312;11.060;2022-08-18T03:09:07;10.00;;;9.10;;
10902;SDS011;5504;47.312;11.060;2022-08-18T03:11:33;10.17;;;9.17;;
10902;SDS011;5504;47.312;11.060;2022-08-18T03:14:00;9.70;;;8.77;;
10902;SDS011;5504;47.312;11.060;2022-08-18T03:16:26;8.97;;;8.20;;
10902;SDS011;5504;47.312;11.060;2022-08-18T03:18:56;9.37;;;8.37;;
10902;SDS011;5504;47.312;11.060;2022-08-18T03:21:24;9.83;;;8.93;;
10902;SDS011;5504;47.312;11.060;2022-08-18T03:23:52;9.67;;;8.87;;
10902;SDS011;5504;47.312;11.060;2022-08-18T03:26:19;10.23;;;9.33;;
10902;SDS011;5504;47.312;11.060;2022-08-18T03:28:47;9.93;;;8.93;;
10902;SDS011;5504;47.312;11.060;2022-08-18T03:31:17;10.03;;;9.03;;
10902;SDS011;5504;47.312;11.060;2022-08-18T03:33:44;10.50;;;9.10;;
10902;SDS011;5504;47.312;11.060;2022-08-18T03:36:16;10.27;;;9.37;;
10902;SDS011;5504;47.312;11.060;2022-08-18T03:38:44;10.00;;;9.00;;
10902;SDS011;5504;47.312;11.060;2022-08-18T03:41:11;9.63;;;8.83;;
10902;SDS011;5504;47.312;11.060;2022-08-18T03:43:39;10.63;;;8.80;;
10902;SDS011;5504;47.312;11.060;2022-08-18T03:46:06;9.53;;;8.73;;
10902;SDS011;5504;47.312;11.060;2022-08-18T03:48:34;9.97;;;9.07;;
10902;SDS011;5504;47.312;11.060;2022-08-18T03:51:09;9.67;;;8.77;;
10902;SDS011;5504;47.312;11.060;2022-08-18T03:53:38;10.43;;;9.43;;
10902;SDS011;5504;47.312;11.060;2022-08-18T03:56:08;10.53;;;9.53;;
10902;SDS011;5504;47.312;11.060;2022-08-18T03:58:42;11.50;;;9.40;;
10902;SDS011;5504;47.312;11.060;2022-08-18T04:01:13;11.10;;;9.93;;
10902;SDS011;5504;47.312;11.060;2022-08-18T04:03:41;9.30;;;8.50;;
10902;SDS011;5504;47.312;11.060;2022-08-18T04:06:14;10.13;;;9.23;;
10902;SDS011;5504;47.312;11.060;2022-08-18T04:08:51;9.80;;;8.90;;
10902;SDS011;5504;47.312;11.060;2022-08-18T04:11:22;10.13;;;9.13;;
10902;SDS011;5504;47.312;11.060;2022-08-18T04:13:49;10.33;;;9.30;;
10902;SDS011;5504;47.312;11.060;2022-08-18T04:16:15;11.10;;;9.60;;
10902;SDS011;5504;47.312;11.060;2022-08-18T04:18:42;11.30;;;9.30;;
10902;SDS011;5504;47.312;11.060;2022-08-18T04:21:09;10.53;;;9.37;;
10902;SDS011;5504;47.312;11.060;2022-08-18T04:23:37;10.77;;;9.70;;
10902;SDS011;5504;47.312;11.060;2022-08-18T04:26:05;10.40;;;9.33;;
10902;SDS011;5504;47.312;11.060;2022-08-18T04:28:31;10.87;;;9.77;;
10902;SDS011;5504;47.312;11.060;2022-08-18T04:30:57;10.90;;;9.80;;
10902;SDS011;5504;47.312;11.060;2022-08-18T04:33:26;10.10;;;9.20;;
10902;SDS011;5504;47.312;11.060;2022-08-18T04:35:53;10.27;;;9.20;;
10902;SDS011;5504;47.312;11.060;2022-08-18T04:38:20;10.10;;;9.10;;
10902;SDS011;5504;47.312;11.060;2022-08-18T04:40:46;10.37;;;9.37;;
10902;SDS011;5504;47.312;11.060;2022-08-18T04:43:12;9.77;;;8.87;;
10902;SDS011;5504;47.312;11.060;2022-08-18T04:45:45;10.30;;;9.30;;
10902;SDS011;5504;47.312;11.060;2022-08-18T04:48:12;10.13;;;9.13;;
10902;SDS011;5504;47.312;11.060;2022-08-18T04:50:40;10.70;;;9.70;;
10902;SDS011;5504;47.312;11.060;2022-08-18T04:53:06;11.03;;;10.03;;
10902;SDS011;5504;47.312;11.060;2022-08-18T04:55:50;9.90;;;9.00;;
10902;SDS011;5504;47.312;11.060;2022-08-18T04:58:18;10.27;;;9.27;;
10902;SDS011;5504;47.312;11.060;2022-08-18T05:00:45;10.33;;;9.40;;
10902;SDS011;5504;47.312;11.060;2022-08-18T05:03:12;10.27;;;9.37;;
10902;SDS011;5504;47.312;11.060;2022-08-18T05:05:38;12.73;;;9.73;;
10902;SDS011;5504;47.312;11.060;2022-08-18T05:08:04;11.30;;;9.37;;
10902;SDS011;5504;47.312;11.060;2022-08-18T05:10:30;10.93;;;9.83;;
10902;SDS011;5504;47.312;11.060;2022-08-18T05:12:56;10.27;;;9.27;;
10902;SDS011;5504;47.312;11.060;2022-08-18T05:15:21;10.60;;;9.60;;
10902;SDS011;5504;47.312;11.060;2022-08-18T05:17:47;10.77;;;9.60;;
10902;SDS011;5504;47.312;11.060;2022-08-18T05:20:13;10.70;;;9.60;;
10902;SDS011;5504;47.312;11.060;2022-08-18T05:22:40;9.80;;;8.63;;
10902;SDS011;5504;47.312;11.060;2022-08-18T05:25:08;9.93;;;8.97;;
10902;SDS011;5504;47.312;11.060;2022-08-18T05:27:35;10.87;;;9.87;;
10902;SDS011;5504;47.312;11.060;2022-08-18T05:30:05;10.33;;;9.33;;
10902;SDS011;5504;47.312;11.060;2022-08-18T05:32:33;10.40;;;9.40;;
10902;SDS011;5504;47.312;11.060;2022-08-18T05:35:03;10.27;;;9.27;;
10902;SDS011;5504;47.312;11.060;2022-08-18T05:40:28;10.67;;;9.67;;
10902;SDS011;5504;47.312;11.060;2022-08-18T05:42:55;10.57;;;9.57;;
10902;SDS011;5504;47.312;11.060;2022-08-18T05:45:23;10.80;;;9.80;;
10902;SDS011;5504;47.312;11.060;2022-08-18T05:47:50;10.53;;;9.43;;
10902;SDS011;5504;47.312;11.060;2022-08-18T05:50:21;10.10;;;9.10;;
10902;SDS011;5504;47.312;11.060;2022-08-18T05:52:54;10.70;;;9.43;;
10902;SDS011;5504;47.312;11.060;2022-08-18T05:55:53;11.03;;;10.03;;
10902;SDS011;5504;47.312;11.060;2022-08-18T05:58:58;12.27;;;11.13;;
10902;SDS011;5504;47.312;11.060;2022-08-18T06:01:31;11.07;;;9.97;;
10902;SDS011;5504;47.312;11.060;2022-08-18T06:04:07;11.63;;;10.43;;
10902;SDS011;5504;47.312;11.060;2022-08-18T06:06:41;11.30;;;10.20;;
10902;SDS011;5504;47.312;11.060;2022-08-18T06:11:41;10.97;;;9.97;;
10902;SDS011;5504;47.312;11.060;2022-08-18T06:14:08;11.40;;;10.30;;
10902;SDS011;5504;47.312;11.060;2022-08-18T06:30:02;10.47;;;9.47;;
10902;SDS011;5504;47.312;11.060;2022-08-18T06:35:28;12.30;;;9.55;;
10902;SDS011;5504;47.312;11.060;2022-08-18T06:41:10;10.73;;;9.73;;
10902;SDS011;5504;47.312;11.060;2022-08-18T06:43:37;11.00;;;9.15;;
10902;SDS011;5504;47.312;11.060;2022-08-18T06:46:22;10.55;;;9.55;;
10902;SDS011;5504;47.312;11.060;2022-08-18T06:49:10;9.93;;;8.93;;
10902;SDS011;5504;47.312;11.060;2022-08-18T06:51:38;11.07;;;10.05;;
10902;SDS011;5504;47.312;11.060;2022-08-18T06:56:52;10.63;;;9.73;;
10902;SDS011;5504;47.312;11.060;2022-08-18T07:04:59;10.52;;;9.13;;
10902;SDS011;5504;47.312;11.060;2022-08-18T07:07:36;9.52;;;8.63;;
10902;SDS011;5504;47.312;11.060;2022-08-18T07:10:46;10.25;;;9.27;;
10902;SDS011;5504;47.312;11.060;2022-08-18T07:13:07;9.45;;;8.65;;
10902;SDS011;5504;47.312;11.060;2022-08-18T07:15:36;9.68;;;8.70;;
10902;SDS011;5504;47.312;11.060;2022-08-18T07:18:03;9.45;;;8.65;;
10902;SDS011;5504;47.312;11.060;2022-08-18T07:20:31;9.75;;;8.77;;
10902;SDS011;5504;47.312;11.060;2022-08-18T07:23:19;9.90;;;8.85;;
10902;SDS011;5504;47.312;11.060;2022-08-18T07:25:49;9.65;;;8.75;;
10902;SDS011;5504;47.312;11.060;2022-08-18T07:28:28;11.90;;;8.55;;
10902;SDS011;5504;47.312;11.060;2022-08-18T07:36:39;8.90;;;8.10;;
10902;SDS011;5504;47.312;11.060;2022-08-18T07:47:12;9.30;;;8.50;;
10902;SDS011;5504;47.312;11.060;2022-08-18T07:49:39;8.55;;;7.70;;
10902;SDS011;5504;47.312;11.060;2022-08-18T08:05:11;9.07;;;8.18;;
10902;SDS011;5504;47.312;11.060;2022-08-18T08:10:56;8.82;;;7.90;;
10902;SDS011;5504;47.312;11.060;2022-08-18T08:13:42;8.85;;;7.60;;
10902;SDS011;5504;47.312;11.060;2022-08-18T08:16:46;8.38;;;7.57;;
10902;SDS011;5504;47.312;11.060;2022-08-18T08:22:42;8.00;;;7.30;;
10902;SDS011;5504;47.312;11.060;2022-08-18T08:25:47;9.23;;;8.43;;
10902;SDS011;5504;47.312;11.060;2022-08-18T08:34:17;8.75;;;7.75;;
10902;SDS011;5504;47.312;11.060;2022-08-18T08:37:04;8.60;;;7.40;;
10902;SDS011;5504;47.312;11.060;2022-08-18T08:39:48;9.05;;;7.45;;
10902;SDS011;5504;47.312;11.060;2022-08-18T08:42:19;9.30;;;6.90;;
10902;SDS011;5504;47.312;11.060;2022-08-18T08:44:56;7.70;;;6.90;;
10902;SDS011;5504;47.312;11.060;2022-08-18T08:49:56;7.13;;;6.53;;
10902;SDS011;5504;47.312;11.060;2022-08-18T08:52:28;7.15;;;6.32;;
10902;SDS011;5504;47.312;11.060;2022-08-18T08:54:59;6.82;;;6.22;;
10902;SDS011;5504;47.312;11.060;2022-08-18T08:57:34;6.80;;;6.20;;
10902;SDS011;5504;47.312;11.060;2022-08-18T09:00:05;7.20;;;6.57;;
10902;SDS011;5504;47.312;11.060;2022-08-18T09:07:59;7.20;;;6.57;;
10902;SDS011;5504;47.312;11.060;2022-08-18T09:10:51;6.75;;;6.15;;
10902;SDS011;5504;47.312;11.060;2022-08-18T09:24:28;7.90;;;6.82;;
10902;SDS011;5504;47.312;11.060;2022-08-18T09:29:50;8.10;;;7.40;;
10902;SDS011;5504;47.312;11.060;2022-08-18T09:40:51;8.40;;;6.72;;
10902;SDS011;5504;47.312;11.060;2022-08-18T09:43:55;7.22;;;6.22;;
10902;SDS011;5504;47.312;11.060;2022-08-18T09:51:59;8.13;;;6.68;;
10902;SDS011;5504;47.312;11.060;2022-08-18T09:57:31;7.22;;;6.53;;
10902;SDS011;5504;47.312;11.060;2022-08-18T10:10:48;8.73;;;6.40;;
10902;SDS011;5504;47.312;11.060;2022-08-18T10:21:22;6.88;;;4.40;;
10902;SDS011;5504;47.312;11.060;2022-08-18T10:44:36;6.40;;;3.78;;
10902;SDS011;5504;47.312;11.060;2022-08-18T10:47:09;8.00;;;4.30;;
10902;SDS011;5504;47.312;11.060;2022-08-18T10:49:49;7.40;;;3.80;;
10902;SDS011;5504;47.312;11.060;2022-08-18T10:54:57;6.68;;;4.35;;
10902;SDS011;5504;47.312;11.060;2022-08-18T11:06:07;5.75;;;4.72;;
10902;SDS011;5504;47.312;11.060;2022-08-18T11:08:40;8.02;;;4.85;;
10902;SDS011;5504;47.312;11.060;2022-08-18T11:11:09;7.65;;;4.43;;
10902;SDS011;5504;47.312;11.060;2022-08-18T11:19:20;6.72;;;4.30;;
10902;SDS011;5504;47.312;11.060;2022-08-18T11:21:47;5.90;;;4.38;;
10902;SDS011;5504;47.312;11.060;2022-08-18T11:24:19;7.28;;;3.97;;
10902;SDS011;5504;47.312;11.060;2022-08-18T11:26:51;5.18;;;3.65;;
10902;SDS011;5504;47.312;11.060;2022-08-18T11:31:53;5.38;;;3.40;;
10902;SDS011;5504;47.312;11.060;2022-08-18T11:34:27;5.03;;;3.25;;
10902;SDS011;5504;47.312;11.060;2022-08-18T11:37:03;4.90;;;3.88;;
10902;SDS011;5504;47.312;11.060;2022-08-18T11:39:31;4.55;;;3.28;;
10902;SDS011;5504;47.312;11.060;2022-08-18T11:41:58;4.82;;;3.10;;
10902;SDS011;5504;47.312;11.060;2022-08-18T11:44:24;3.40;;;2.47;;
10902;SDS011;5504;47.312;11.060;2022-08-18T11:47:11;4.35;;;2.70;;
10902;SDS011;5504;47.312;11.060;2022-08-18T11:49:44;3.63;;;2.15;;
10902;SDS011;5504;47.312;11.060;2022-08-18T11:52:19;3.13;;;2.10;;
10902;SDS011;5504;47.312;11.060;2022-08-18T11:54:49;3.45;;;1.90;;
10902;SDS011;5504;47.312;11.060;2022-08-18T12:03:03;3.20;;;2.05;;
10902;SDS011;5504;47.312;11.060;2022-08-18T12:05:40;4.07;;;1.75;;
10902;SDS011;5504;47.312;11.060;2022-08-18T12:08:25;2.70;;;1.70;;
10902;SDS011;5504;47.312;11.060;2022-08-18T12:11:14;3.38;;;1.80;;
10902;SDS011;5504;47.312;11.060;2022-08-18T12:13:44;3.10;;;1.60;;
10902;SDS011;5504;47.312;11.060;2022-08-18T12:16:16;3.42;;;1.77;;
10902;SDS011;5504;47.312;11.060;2022-08-18T12:18:55;4.50;;;1.88;;
10902;SDS011;5504;47.312;11.060;2022-08-18T12:21:21;2.95;;;1.70;;
10902;SDS011;5504;47.312;11.060;2022-08-18T12:23:47;3.25;;;1.60;;
10902;SDS011;5504;47.312;11.060;2022-08-18T12:26:13;2.50;;;1.45;;
10902;SDS011;5504;47.312;11.060;2022-08-18T12:28:39;2.80;;;1.60;;
10902;SDS011;5504;47.312;11.060;2022-08-18T12:31:05;2.03;;;1.50;;
10902;SDS011;5504;47.312;11.060;2022-08-18T12:33:32;4.75;;;1.75;;
10902;SDS011;5504;47.312;11.060;2022-08-18T12:35:59;3.53;;;1.42;;
10902;SDS011;5504;47.312;11.060;2022-08-18T12:38:25;4.18;;;1.67;;
10902;SDS011;5504;47.312;11.060;2022-08-18T12:40:51;2.80;;;1.50;;
10902;SDS011;5504;47.312;11.060;2022-08-18T12:43:17;2.50;;;1.80;;
10902;SDS011;5504;47.312;11.060;2022-08-18T12:45:43;3.38;;;2.50;;
10902;SDS011;5504;47.312;11.060;2022-08-18T12:48:09;4.47;;;2.90;;
10902;SDS011;5504;47.312;11.060;2022-08-18T12:50:36;5.20;;;3.25;;
10902;SDS011;5504;47.312;11.060;2022-08-18T12:53:02;4.97;;;3.20;;
10902;SDS011;5504;47.312;11.060;2022-08-18T12:55:29;5.93;;;3.08;;
10902;SDS011;5504;47.312;11.060;2022-08-18T12:57:58;3.45;;;3.08;;
10902;SDS011;5504;47.312;11.060;2022-08-18T13:00:24;3.97;;;3.00;;
10902;SDS011;5504;47.312;11.060;2022-08-18T13:02:50;6.85;;;3.22;;
10902;SDS011;5504;47.312;11.060;2022-08-18T13:05:16;5.55;;;3.15;;
10902;SDS011;5504;47.312;11.060;2022-08-18T13:07:43;3.08;;;2.50;;
10902;SDS011;5504;47.312;11.060;2022-08-18T13:10:09;4.47;;;2.35;;
10902;SDS011;5504;47.312;11.060;2022-08-18T13:12:35;3.47;;;2.08;;
10902;SDS011;5504;47.312;11.060;2022-08-18T13:15:01;6.53;;;2.30;;
10902;SDS011;5504;47.312;11.060;2022-08-18T13:17:30;4.97;;;2.13;;
10902;SDS011;5504;47.312;11.060;2022-08-18T13:19:56;4.53;;;1.90;;
10902;SDS011;5504;47.312;11.060;2022-08-18T13:22:22;4.32;;;1.75;;
10902;SDS011;5504;47.312;11.060;2022-08-18T13:24:47;2.97;;;1.73;;
10902;SDS011;5504;47.312;11.060;2022-08-18T13:27:14;3.97;;;1.70;;
10902;SDS011;5504;47.312;11.060;2022-08-18T13:29:41;2.67;;;1.52;;
10902;SDS011;5504;47.312;11.060;2022-08-18T13:32:06;3.63;;;1.70;;
10902;SDS011;5504;47.312;11.060;2022-08-18T13:34:33;3.88;;;1.55;;
10902;SDS011;5504;47.312;11.060;2022-08-18T13:36:59;3.65;;;1.50;;
10902;SDS011;5504;47.312;11.060;2022-08-18T13:39:25;4.93;;;1.70;;
10902;SDS011;5504;47.312;11.060;2022-08-18T13:41:52;2.90;;;1.70;;
10902;SDS011;5504;47.312;11.060;2022-08-18T13:44:19;4.78;;;1.60;;
10902;SDS011;5504;47.312;11.060;2022-08-18T13:46:46;3.05;;;1.50;;
10902;SDS011;5504;47.312;11.060;2022-08-18T13:49:13;7.28;;;1.95;;
10902;SDS011;5504;47.312;11.060;2022-08-18T13:51:44;1.30;;;1.20;;
10902;SDS011;5504;47.312;11.060;2022-08-18T13:54:15;4.47;;;1.50;;
10902;SDS011;5504;47.312;11.060;2022-08-18T13:56:53;3.80;;;1.45;;
10902;SDS011;5504;47.312;11.060;2022-08-18T13:59:20;2.95;;;1.63;;
10902;SDS011;5504;47.312;11.060;2022-08-18T14:01:46;3.05;;;1.90;;
10902;SDS011;5504;47.312;11.060;2022-08-18T14:04:14;4.03;;;1.95;;
10902;SDS011;5504;47.312;11.060;2022-08-18T14:06:40;4.00;;;2.13;;
10902;SDS011;5504;47.312;11.060;2022-08-18T14:09:06;2.80;;;1.90;;
10902;SDS011;5504;47.312;11.060;2022-08-18T14:11:33;2.83;;;1.83;;
10902;SDS011;5504;47.312;11.060;2022-08-18T14:14:01;3.65;;;2.25;;
10902;SDS011;5504;47.312;11.060;2022-08-18T14:16:29;3.75;;;2.30;;
10902;SDS011;5504;47.312;11.060;2022-08-18T14:18:55;3.65;;;2.25;;
10902;SDS011;5504;47.312;11.060;2022-08-18T14:21:46;2.60;;;2.22;;
10902;SDS011;5504;47.312;11.060;2022-08-18T14:24:32;3.42;;;2.60;;
10902;SDS011;5504;47.312;11.060;2022-08-18T14:27:17;3.28;;;2.28;;
10902;SDS011;5504;47.312;11.060;2022-08-18T14:29:44;5.43;;;2.25;;
10902;SDS011;5504;47.312;11.060;2022-08-18T14:32:12;3.83;;;2.50;;
10902;SDS011;5504;47.312;11.060;2022-08-18T14:34:42;4.40;;;2.55;;
10902;SDS011;5504;47.312;11.060;2022-08-18T14:37:09;5.03;;;2.47;;
10902;SDS011;5504;47.312;11.060;2022-08-18T14:39:35;5.20;;;2.70;;
10902;SDS011;5504;47.312;11.060;2022-08-18T14:42:02;5.53;;;2.38;;
10902;SDS011;5504;47.312;11.060;2022-08-18T14:44:28;3.97;;;2.60;;
10902;SDS011;5504;47.312;11.060;2022-08-18T14:46:54;4.90;;;2.70;;
10902;SDS011;5504;47.312;11.060;2022-08-18T14:49:24;4.43;;;2.58;;
10902;SDS011;5504;47.312;11.060;2022-08-18T14:51:51;5.60;;;2.78;;
10902;SDS011;5504;47.312;11.060;2022-08-18T14:54:16;3.35;;;2.80;;
10902;SDS011;5504;47.312;11.060;2022-08-18T14:56:42;4.40;;;2.95;;
10902;SDS011;5504;47.312;11.060;2022-08-18T14:59:08;4.70;;;2.53;;
10902;SDS011;5504;47.312;11.060;2022-08-18T15:01:35;4.30;;;2.75;;
10902;SDS011;5504;47.312;11.060;2022-08-18T15:04:01;4.90;;;2.88;;
10902;SDS011;5504;47.312;11.060;2022-08-18T15:06:28;3.67;;;2.97;;
10902;SDS011;5504;47.312;11.060;2022-08-18T15:08:54;3.20;;;2.65;;
10902;SDS011;5504;47.312;11.060;2022-08-18T15:11:20;4.55;;;2.90;;
10902;SDS011;5504;47.312;11.060;2022-08-18T15:13:46;3.83;;;2.80;;
10902;SDS011;5504;47.312;11.060;2022-08-18T15:16:12;4.40;;;2.95;;
10902;SDS011;5504;47.312;11.060;2022-08-18T15:18:40;4.15;;;3.00;;
10902;SDS011;5504;47.312;11.060;2022-08-18T15:21:07;5.50;;;3.10;;
10902;SDS011;5504;47.312;11.060;2022-08-18T15:23:51;3.97;;;2.90;;
10902;SDS011;5504;47.312;11.060;2022-08-18T15:26:35;5.07;;;2.80;;
10902;SDS011;5504;47.312;11.060;2022-08-18T15:29:02;5.22;;;3.10;;
10902;SDS011;5504;47.312;11.060;2022-08-18T15:31:35;3.72;;;3.00;;
10902;SDS011;5504;47.312;11.060;2022-08-18T15:34:01;6.00;;;3.30;;
10902;SDS011;5504;47.312;11.060;2022-08-18T15:36:28;4.93;;;2.75;;
10902;SDS011;5504;47.312;11.060;2022-08-18T15:38:57;4.13;;;2.85;;
10902;SDS011;5504;47.312;11.060;2022-08-18T15:41:34;4.78;;;3.00;;
10902;SDS011;5504;47.312;11.060;2022-08-18T15:44:10;5.35;;;3.00;;
10902;SDS011;5504;47.312;11.060;2022-08-18T15:46:38;3.55;;;2.80;;
10902;SDS011;5504;47.312;11.060;2022-08-18T15:49:04;4.15;;;3.35;;
10902;SDS011;5504;47.312;11.060;2022-08-18T15:51:35;4.00;;;3.13;;
10902;SDS011;5504;47.312;11.060;2022-08-18T15:54:03;4.50;;;3.40;;
10902;SDS011;5504;47.312;11.060;2022-08-18T15:56:30;4.13;;;3.10;;
10902;SDS011;5504;47.312;11.060;2022-08-18T15:58:57;3.20;;;2.90;;
10902;SDS011;5504;47.312;11.060;2022-08-18T16:01:23;3.33;;;2.80;;
10902;SDS011;5504;47.312;11.060;2022-08-18T16:03:50;4.53;;;2.80;;
10902;SDS011;5504;47.312;11.060;2022-08-18T16:06:19;5.88;;;3.08;;
10902;SDS011;5504;47.312;11.060;2022-08-18T16:08:50;4.50;;;2.60;;
10902;SDS011;5504;47.312;11.060;2022-08-18T16:11:16;3.53;;;2.80;;
10902;SDS011;5504;47.312;11.060;2022-08-18T16:13:43;3.00;;;2.70;;
10902;SDS011;5504;47.312;11.060;2022-08-18T16:16:12;3.38;;;2.70;;
10902;SDS011;5504;47.312;11.060;2022-08-18T16:18:49;5.22;;;2.95;;
10902;SDS011;5504;47.312;11.060;2022-08-18T16:21:21;3.40;;;2.78;;
10902;SDS011;5504;47.312;11.060;2022-08-18T16:23:48;3.08;;;2.72;;
10902;SDS011;5504;47.312;11.060;2022-08-18T16:26:16;4.60;;;3.15;;
10902;SDS011;5504;47.312;11.060;2022-08-18T16:28:44;3.42;;;2.95;;
10902;SDS011;5504;47.312;11.060;2022-08-18T16:31:11;3.45;;;3.00;;
10902;SDS011;5504;47.312;11.060;2022-08-18T16:33:40;3.83;;;2.65;;
10902;SDS011;5504;47.312;11.060;2022-08-18T16:36:09;2.97;;;2.67;;
10902;SDS011;5504;47.312;11.060;2022-08-18T16:38:38;4.68;;;2.80;;
10902;SDS011;5504;47.312;11.060;2022-08-18T16:41:08;4.20;;;3.00;;
10902;SDS011;5504;47.312;11.060;2022-08-18T16:43:42;4.95;;;2.88;;
10902;SDS011;5504;47.312;11.060;2022-08-18T16:46:10;4.00;;;3.08;;
10902;SDS011;5504;47.312;11.060;2022-08-18T16:48:41;3.58;;;2.75;;
10902;SDS011;5504;47.312;11.060;2022-08-18T16:51:11;3.35;;;3.05;;
10902;SDS011;5504;47.312;11.060;2022-08-18T16:53:38;5.05;;;3.03;;
10902;SDS011;5504;47.312;11.060;2022-08-18T16:56:08;4.32;;;3.15;;
10902;SDS011;5504;47.312;11.060;2022-08-18T16:58:36;3.72;;;2.80;;
10902;SDS011;5504;47.312;11.060;2022-08-18T17:01:20;4.20;;;3.08;;
10902;SDS011;5504;47.312;11.060;2022-08-18T17:04:04;3.90;;;2.92;;
10902;SDS011;5504;47.312;11.060;2022-08-18T17:06:31;4.32;;;3.10;;
10902;SDS011;5504;47.312;11.060;2022-08-18T17:08:58;3.53;;;3.22;;
10902;SDS011;5504;47.312;11.060;2022-08-18T17:11:25;4.60;;;3.20;;
10902;SDS011;5504;47.312;11.060;2022-08-18T17:13:54;5.10;;;3.30;;
10902;SDS011;5504;47.312;11.060;2022-08-18T17:16:22;3.85;;;3.13;;
10902;SDS011;5504;47.312;11.060;2022-08-18T17:18:50;3.88;;;3.10;;
10902;SDS011;5504;47.312;11.060;2022-08-18T17:21:17;4.00;;;2.90;;
10902;SDS011;5504;47.312;11.060;2022-08-18T17:23:46;4.32;;;3.30;;
10902;SDS011;5504;47.312;11.060;2022-08-18T17:26:33;5.20;;;3.40;;
10902;SDS011;5504;47.312;11.060;2022-08-18T17:31:38;3.47;;;3.17;;
10902;SDS011;5504;47.312;11.060;2022-08-18T17:34:09;6.30;;;3.72;;
10902;SDS011;5504;47.312;11.060;2022-08-18T17:36:41;5.80;;;3.70;;
10902;SDS011;5504;47.312;11.060;2022-08-18T17:39:23;4.07;;;3.30;;
10902;SDS011;5504;47.312;11.060;2022-08-18T17:41:52;4.10;;;3.33;;
10902;SDS011;5504;47.312;11.060;2022-08-18T17:44:38;4.55;;;3.58;;
10902;SDS011;5504;47.312;11.060;2022-08-18T17:47:06;3.97;;;3.53;;
10902;SDS011;5504;47.312;11.060;2022-08-18T17:49:40;3.72;;;3.38;;
10902;SDS011;5504;47.312;11.060;2022-08-18T17:52:27;5.07;;;3.80;;
10902;SDS011;5504;47.312;11.060;2022-08-18T17:55:00;3.92;;;3.60;;
10902;SDS011;5504;47.312;11.060;2022-08-18T17:57:31;4.30;;;3.85;;
10902;SDS011;5504;47.312;11.060;2022-08-18T18:00:07;5.47;;;3.45;;
10902;SDS011;5504;47.312;11.060;2022-08-18T18:02:36;4.15;;;3.30;;
10902;SDS011;5504;47.312;11.060;2022-08-18T18:05:04;3.85;;;3.55;;
10902;SDS011;5504;47.312;11.060;2022-08-18T18:10:26;3.70;;;3.33;;
10902;SDS011;5504;47.312;11.060;2022-08-18T18:13:28;3.97;;;3.67;;
10902;SDS011;5504;47.312;11.060;2022-08-18T18:15:58;4.10;;;3.70;;
10902;SDS011;5504;47.312;11.060;2022-08-18T18:18:42;4.47;;;4.07;;